sensor_id;sensor_type;location;lat;lon;timestamp;temperature;humidity
21590;DHT22;10957;50.968;6.828;2022-09-02T00:03:33;16.80;1.00
21590;DHT22;10957;50.968;6.828;2022-09-02T00:08:34;16.80;1.00
21590;DHT22;10957;50.968;6.828;2022-09-02T00:13:36;16.60;1.00
21590;DHT22;10957;50.968;6.828;2022-09-02T00:18:38;16.60;1.00
21590;DHT22;10957;50.968;6.828;2022-09-02T00:23:41;16.70;1.00
21590;DHT22;10957;50.968;6.828;2022-09-02T00:28:42;16.70;1.00
21590;DHT22;10957;50.968;6.828;2022-09-02T00:33:43;16.60;1.00
21590;DHT22;10957;50.968;6.828;2022-09-02T00:38:45;16.70;1.00
21590;DHT22;10957;50.968;6.828;2022-09-02T00:43:59;16.70;1.00
21590;DHT22;10957;50.968;6.828;2022-09-02T00:54:27;16.60;1.00
21590;DHT22;10957;50.968;6.828;2022-09-02T01:00:00;16.70;1.00
21590;DHT22;10957;50.968;6.828;2022-09-02T01:05:03;16.80;1.00
21590;DHT22;10957;50.968;6.828;2022-09-02T01:10:12;16.70;1.00
21590;DHT22;10957;50.968;6.828;2022-09-02T01:15:15;16.80;1.00
21590;DHT22;10957;50.968;6.828;2022-09-02T01:20:29;16.70;1.00
21590;DHT22;10957;50.968;6.828;2022-09-02T01:25:33;16.60;1.00
21590;DHT22;10957;50.968;6.828;2022-09-02T01:30:37;16.60;1.00
21590;DHT22;10957;50.968;6.828;2022-09-02T01:35:38;16.60;1.00
21590;DHT22;10957;50.968;6.828;2022-09-02T01:40:43;16.70;1.00
21590;DHT22;10957;50.968;6.828;2022-09-02T01:45:46;16.50;1.00
21590;DHT22;10957;50.968;6.828;2022-09-02T01:50:55;16.40;1.00
21590;DHT22;10957;50.968;6.828;2022-09-02T01:55:57;16.40;1.00
21590;DHT22;10957;50.968;6.828;2022-09-02T02:00:58;16.40;1.00
21590;DHT22;10957;50.968;6.828;2022-09-02T02:05:59;16.20;1.00
21590;DHT22;10957;50.968;6.828;2022-09-02T02:11:00;16.20;1.00
21590;DHT22;10957;50.968;6.828;2022-09-02T02:16:04;16.20;1.00
21590;DHT22;10957;50.968;6.828;2022-09-02T02:21:05;16.10;1.00
21590;DHT22;10957;50.968;6.828;2022-09-02T02:26:06;16.10;1.00
21590;DHT22;10957;50.968;6.828;2022-09-02T02:31:08;15.90;1.00
21590;DHT22;10957;50.968;6.828;2022-09-02T02:36:10;15.80;1.00
21590;DHT22;10957;50.968;6.828;2022-09-02T02:41:13;15.90;1.00
21590;DHT22;10957;50.968;6.828;2022-09-02T02:46:14;15.90;1.00
21590;DHT22;10957;50.968;6.828;2022-09-02T02:51:15;16.00;1.00
21590;DHT22;10957;50.968;6.828;2022-09-02T02:56:18;15.90;1.00
21590;DHT22;10957;50.968;6.828;2022-09-02T03:01:19;15.90;1.00
21590;DHT22;10957;50.968;6.828;2022-09-02T03:06:20;15.30;1.00
21590;DHT22;10957;50.968;6.828;2022-09-02T03:11:22;15.70;1.00
21590;DHT22;10957;50.968;6.828;2022-09-02T03:16:24;15.30;1.00
21590;DHT22;10957;50.968;6.828;2022-09-02T03:21:27;15.60;1.00
21590;DHT22;10957;50.968;6.828;2022-09-02T03:26:28;15.60;1.00
21590;DHT22;10957;50.968;6.828;2022-09-02T03:31:29;15.50;1.00
21590;DHT22;10957;50.968;6.828;2022-09-02T03:36:34;15.70;1.00
21590;DHT22;10957;50.968;6.828;2022-09-02T03:41:35;15.70;1.00
21590;DHT22;10957;50.968;6.828;2022-09-02T03:46:39;15.80;1.00
21590;DHT22;10957;50.968;6.828;2022-09-02T03:51:41;15.70;1.00
21590;DHT22;10957;50.968;6.828;2022-09-02T03:56:42;15.60;1.00
21590;DHT22;10957;50.968;6.828;2022-09-02T04:01:44;15.40;1.00
21590;DHT22;10957;50.968;6.828;2022-09-02T04:06:45;15.50;1.00
21590;DHT22;10957;50.968;6.828;2022-09-02T04:11:46;15.50;1.00
21590;DHT22;10957;50.968;6.828;2022-09-02T04:16:47;15.50;1.00
21590;DHT22;10957;50.968;6.828;2022-09-02T04:21:48;15.60;1.00
21590;DHT22;10957;50.968;6.828;2022-09-02T04:26:50;15.80;1.40
21590;DHT22;10957;50.968;6.828;2022-09-02T04:31:52;15.10;1.00
21590;DHT22;10957;50.968;6.828;2022-09-02T04:36:53;15.80;1.00
21590;DHT22;10957;50.968;6.828;2022-09-02T04:41:54;15.90;1.00
21590;DHT22;10957;50.968;6.828;2022-09-02T04:46:57;15.90;1.00
21590;DHT22;10957;50.968;6.828;2022-09-02T04:51:59;15.90;1.00
21590;DHT22;10957;50.968;6.828;2022-09-02T04:57:01;16.00;1.00
21590;DHT22;10957;50.968;6.828;2022-09-02T05:02:03;16.00;1.00
21590;DHT22;10957;50.968;6.828;2022-09-02T05:07:05;16.10;1.00
21590;DHT22;10957;50.968;6.828;2022-09-02T05:12:12;16.20;1.00
21590;DHT22;10957;50.968;6.828;2022-09-02T05:17:18;16.20;1.00
21590;DHT22;10957;50.968;6.828;2022-09-02T05:22:21;16.20;1.00
21590;DHT22;10957;50.968;6.828;2022-09-02T05:27:23;16.20;1.00
21590;DHT22;10957;50.968;6.828;2022-09-02T05:32:25;16.40;1.00
21590;DHT22;10957;50.968;6.828;2022-09-02T05:37:27;16.40;1.00
21590;DHT22;10957;50.968;6.828;2022-09-02T05:42:28;16.60;1.00
21590;DHT22;10957;50.968;6.828;2022-09-02T05:47:32;16.70;1.00
21590;DHT22;10957;50.968;6.828;2022-09-02T05:52:33;16.80;1.00
21590;DHT22;10957;50.968;6.828;2022-09-02T05:57:34;16.90;1.00
21590;DHT22;10957;50.968;6.828;2022-09-02T06:02:37;17.10;1.00
21590;DHT22;10957;50.968;6.828;2022-09-02T06:07:39;17.30;1.00
21590;DHT22;10957;50.968;6.828;2022-09-02T06:12:41;17.50;1.00
21590;DHT22;10957;50.968;6.828;2022-09-02T06:17:42;17.70;1.00
21590;DHT22;10957;50.968;6.828;2022-09-02T06:22:44;17.80;1.00
21590;DHT22;10957;50.968;6.828;2022-09-02T06:27:46;17.80;1.00
21590;DHT22;10957;50.968;6.828;2022-09-02T06:32:48;17.90;1.00
21590;DHT22;10957;50.968;6.828;2022-09-02T06:37:49;17.90;1.00
21590;DHT22;10957;50.968;6.828;2022-09-02T06:42:51;18.00;1.00
21590;DHT22;10957;50.968;6.828;2022-09-02T06:48:06;18.10;1.00
21590;DHT22;10957;50.968;6.828;2022-09-02T06:53:09;18.30;1.00
21590;DHT22;10957;50.968;6.828;2022-09-02T06:58:13;18.30;1.00
21590;DHT22;10957;50.968;6.828;2022-09-02T07:03:14;18.80;1.00
21590;DHT22;10957;50.968;6.828;2022-09-02T07:08:41;18.90;1.00
21590;DHT22;10957;50.968;6.828;2022-09-02T07:13:43;19.20;1.00
21590;DHT22;10957;50.968;6.828;2022-09-02T07:18:44;19.50;1.00
21590;DHT22;10957;50.968;6.828;2022-09-02T07:23:46;19.80;1.00
21590;DHT22;10957;50.968;6.828;2022-09-02T07:28:47;19.90;1.00
21590;DHT22;10957;50.968;6.828;2022-09-02T07:33:49;20.10;1.00
21590;DHT22;10957;50.968;6.828;2022-09-02T07:38:49;20.00;1.00
21590;DHT22;10957;50.968;6.828;2022-09-02T07:43:50;20.20;1.00
21590;DHT22;10957;50.968;6.828;2022-09-02T07:48:51;20.30;1.00
21590;DHT22;10957;50.968;6.828;2022-09-02T07:53:52;20.40;1.00
21590;DHT22;10957;50.968;6.828;2022-09-02T07:58:54;20.60;1.00
21590;DHT22;10957;50.968;6.828;2022-09-02T08:03:55;20.80;1.00
21590;DHT22;10957;50.968;6.828;2022-09-02T08:09:06;21.00;1.00
21590;DHT22;10957;50.968;6.828;2022-09-02T08:14:14;21.20;1.00
21590;DHT22;10957;50.968;6.828;2022-09-02T08:19:17;21.40;1.00
21590;DHT22;10957;50.968;6.828;2022-09-02T08:24:18;21.70;1.00
21590;DHT22;10957;50.968;6.828;2022-09-02T08:29:19;21.70;1.00
21590;DHT22;10957;50.968;6.828;2022-09-02T08:34:20;22.40;1.00
21590;DHT22;10957;50.968;6.828;2022-09-02T08:39:20;23.10;1.00
21590;DHT22;10957;50.968;6.828;2022-09-02T08:44:22;23.40;1.00
21590;DHT22;10957;50.968;6.828;2022-09-02T08:49:29;23.70;1.00
21590;DHT22;10957;50.968;6.828;2022-09-02T08:54:45;24.10;1.00
21590;DHT22;10957;50.968;6.828;2022-09-02T08:59:47;24.30;1.00
21590;DHT22;10957;50.968;6.828;2022-09-02T09:05:11;24.20;1.00
21590;DHT22;10957;50.968;6.828;2022-09-02T09:11:04;24.30;1.00
21590;DHT22;10957;50.968;6.828;2022-09-02T09:15:58;24.70;1.00
21590;DHT22;10957;50.968;6.828;2022-09-02T09:20:59;24.20;1.00
21590;DHT22;10957;50.968;6.828;2022-09-02T09:26:09;24.10;1.00
21590;DHT22;10957;50.968;6.828;2022-09-02T09:31:13;24.50;1.00
21590;DHT22;10957;50.968;6.828;2022-09-02T09:36:15;24.40;1.00
21590;DHT22;10957;50.968;6.828;2022-09-02T09:41:23;24.40;1.00
21590;DHT22;10957;50.968;6.828;2022-09-02T09:46:29;24.40;1.00
21590;DHT22;10957;50.968;6.828;2022-09-02T09:51:31;24.90;1.00
21590;DHT22;10957;50.968;6.828;2022-09-02T09:56:32;24.90;1.00
21590;DHT22;10957;50.968;6.828;2022-09-02T10:01:34;25.00;1.00
21590;DHT22;10957;50.968;6.828;2022-09-02T10:06:41;24.70;1.00
21590;DHT22;10957;50.968;6.828;2022-09-02T10:12:04;24.70;1.00
21590;DHT22;10957;50.968;6.828;2022-09-02T10:17:23;24.90;1.00
21590;DHT22;10957;50.968;6.828;2022-09-02T10:43:00;25.00;1.00
21590;DHT22;10957;50.968;6.828;2022-09-02T10:53:17;24.60;1.00
21590;DHT22;10957;50.968;6.828;2022-09-02T11:04:37;24.60;1.00
21590;DHT22;10957;50.968;6.828;2022-09-02T11:09:44;24.60;1.00
21590;DHT22;10957;50.968;6.828;2022-09-02T11:25:25;25.80;1.00
21590;DHT22;10957;50.968;6.828;2022-09-02T11:30:37;25.20;1.00
21590;DHT22;10957;50.968;6.828;2022-09-02T11:35:39;25.30;1.00
21590;DHT22;10957;50.968;6.828;2022-09-02T11:56:43;25.50;1.00
21590;DHT22;10957;50.968;6.828;2022-09-02T12:01:54;25.80;1.00
21590;DHT22;10957;50.968;6.828;2022-09-02T12:12:07;26.10;1.00
21590;DHT22;10957;50.968;6.828;2022-09-02T12:17:09;26.30;1.00
21590;DHT22;10957;50.968;6.828;2022-09-02T12:27:35;26.30;1.00
21590;DHT22;10957;50.968;6.828;2022-09-02T12:33:09;26.10;1.00
21590;DHT22;10957;50.968;6.828;2022-09-02T12:43:22;26.00;1.00
21590;DHT22;10957;50.968;6.828;2022-09-02T12:48:38;26.00;1.00
21590;DHT22;10957;50.968;6.828;2022-09-02T12:53:45;26.00;1.00
21590;DHT22;10957;50.968;6.828;2022-09-02T12:58:53;26.00;1.00
21590;DHT22;10957;50.968;6.828;2022-09-02T13:31:15;26.10;1.00
21590;DHT22;10957;50.968;6.828;2022-09-02T13:36:27;26.10;1.00
21590;DHT22;10957;50.968;6.828;2022-09-02T13:41:31;26.60;1.00
21590;DHT22;10957;50.968;6.828;2022-09-02T13:46:32;26.00;1.00
21590;DHT22;10957;50.968;6.828;2022-09-02T13:51:33;26.00;1.00
21590;DHT22;10957;50.968;6.828;2022-09-02T13:56:34;26.00;1.00
21590;DHT22;10957;50.968;6.828;2022-09-02T14:01:37;26.40;1.00
21590;DHT22;10957;50.968;6.828;2022-09-02T14:06:41;26.30;1.00
21590;DHT22;10957;50.968;6.828;2022-09-02T14:11:44;26.30;1.00
21590;DHT22;10957;50.968;6.828;2022-09-02T14:16:46;26.30;1.00
21590;DHT22;10957;50.968;6.828;2022-09-02T14:26:56;26.90;1.00
21590;DHT22;10957;50.968;6.828;2022-09-02T14:32:14;26.90;1.00
21590;DHT22;10957;50.968;6.828;2022-09-02T14:37:26;26.50;1.00
21590;DHT22;10957;50.968;6.828;2022-09-02T14:42:28;26.50;1.00
21590;DHT22;10957;50.968;6.828;2022-09-02T14:47:28;26.50;1.00
21590;DHT22;10957;50.968;6.828;2022-09-02T14:52:30;26.50;1.00
21590;DHT22;10957;50.968;6.828;2022-09-02T14:57:35;26.50;1.00
21590;DHT22;10957;50.968;6.828;2022-09-02T15:02:40;26.40;1.00
21590;DHT22;10957;50.968;6.828;2022-09-02T15:07:42;26.60;1.00
21590;DHT22;10957;50.968;6.828;2022-09-02T15:12:49;26.40;1.00
21590;DHT22;10957;50.968;6.828;2022-09-02T15:17:50;26.40;1.00
21590;DHT22;10957;50.968;6.828;2022-09-02T15:22:52;26.40;1.00
21590;DHT22;10957;50.968;6.828;2022-09-02T15:27:52;26.30;1.00
21590;DHT22;10957;50.968;6.828;2022-09-02T15:32:53;26.20;1.00
21590;DHT22;10957;50.968;6.828;2022-09-02T15:37:54;26.10;1.00
21590;DHT22;10957;50.968;6.828;2022-09-02T15:42:55;26.00;1.00
21590;DHT22;10957;50.968;6.828;2022-09-02T15:48:00;26.20;1.00
21590;DHT22;10957;50.968;6.828;2022-09-02T15:53:01;26.00;1.00
21590;DHT22;10957;50.968;6.828;2022-09-02T15:58:02;25.90;1.00
21590;DHT22;10957;50.968;6.828;2022-09-02T16:03:02;25.80;1.00
21590;DHT22;10957;50.968;6.828;2022-09-02T16:08:03;25.70;1.00
21590;DHT22;10957;50.968;6.828;2022-09-02T16:13:04;25.40;1.00
21590;DHT22;10957;50.968;6.828;2022-09-02T16:18:05;25.40;1.00
21590;DHT22;10957;50.968;6.828;2022-09-02T16:23:06;25.40;1.00
21590;DHT22;10957;50.968;6.828;2022-09-02T16:28:06;25.20;1.00
21590;DHT22;10957;50.968;6.828;2022-09-02T16:33:07;25.10;1.00
21590;DHT22;10957;50.968;6.828;2022-09-02T16:38:08;25.10;1.00
21590;DHT22;10957;50.968;6.828;2022-09-02T16:43:08;24.90;1.00
21590;DHT22;10957;50.968;6.828;2022-09-02T16:48:11;24.80;1.00
21590;DHT22;10957;50.968;6.828;2022-09-02T16:53:13;24.70;1.00
21590;DHT22;10957;50.968;6.828;2022-09-02T16:58:14;24.60;1.00
21590;DHT22;10957;50.968;6.828;2022-09-02T17:03:15;24.60;1.00
21590;DHT22;10957;50.968;6.828;2022-09-02T17:08:15;24.50;1.00
21590;DHT22;10957;50.968;6.828;2022-09-02T17:13:17;24.40;1.00
21590;DHT22;10957;50.968;6.828;2022-09-02T17:18:17;24.20;1.00
21590;DHT22;10957;50.968;6.828;2022-09-02T17:23:18;24.10;1.00
21590;DHT22;10957;50.968;6.828;2022-09-02T17:28:19;24.20;1.00
21590;DHT22;10957;50.968;6.828;2022-09-02T17:33:19;24.00;1.00
21590;DHT22;10957;50.968;6.828;2022-09-02T17:38:20;23.80;1.00
21590;DHT22;10957;50.968;6.828;2022-09-02T17:43:21;23.70;1.00
21590;DHT22;10957;50.968;6.828;2022-09-02T17:48:22;23.70;1.00
21590;DHT22;10957;50.968;6.828;2022-09-02T17:53:23;23.50;1.00
21590;DHT22;10957;50.968;6.828;2022-09-02T17:58:29;23.40;1.00
21590;DHT22;10957;50.968;6.828;2022-09-02T18:03:40;23.20;1.00
21590;DHT22;10957;50.968;6.828;2022-09-02T18:09:02;23.00;1.00
21590;DHT22;10957;50.968;6.828;2022-09-02T18:14:16;22.80;1.00
21590;DHT22;10957;50.968;6.828;2022-09-02T18:25:00;22.60;1.00
21590;DHT22;10957;50.968;6.828;2022-09-02T18:30:08;22.30;1.00
21590;DHT22;10957;50.968;6.828;2022-09-02T18:35:20;22.30;1.00
21590;DHT22;10957;50.968;6.828;2022-09-02T18:40:37;22.10;1.00
21590;DHT22;10957;50.968;6.828;2022-09-02T18:45:55;22.00;1.00
21590;DHT22;10957;50.968;6.828;2022-09-02T18:51:12;21.80;1.00
21590;DHT22;10957;50.968;6.828;2022-09-02T18:56:17;21.70;1.00
21590;DHT22;10957;50.968;6.828;2022-09-02T19:01:39;21.80;1.00
21590;DHT22;10957;50.968;6.828;2022-09-02T19:06:42;21.60;1.00
21590;DHT22;10957;50.968;6.828;2022-09-02T19:11:43;21.60;1.00
21590;DHT22;10957;50.968;6.828;2022-09-02T19:16:44;21.50;1.00
21590;DHT22;10957;50.968;6.828;2022-09-02T19:21:48;21.60;1.00
21590;DHT22;10957;50.968;6.828;2022-09-02T19:26:56;21.40;1.00
21590;DHT22;10957;50.968;6.828;2022-09-02T19:31:59;21.40;1.00
21590;DHT22;10957;50.968;6.828;2022-09-02T19:37:00;21.30;1.00
21590;DHT22;10957;50.968;6.828;2022-09-02T19:42:01;21.10;1.00
21590;DHT22;10957;50.968;6.828;2022-09-02T19:47:01;21.00;1.00
21590;DHT22;10957;50.968;6.828;2022-09-02T19:52:02;21.10;1.00
21590;DHT22;10957;50.968;6.828;2022-09-02T19:57:03;20.80;1.00
21590;DHT22;10957;50.968;6.828;2022-09-02T20:02:04;20.70;1.00
21590;DHT22;10957;50.968;6.828;2022-09-02T20:07:06;20.60;1.00
21590;DHT22;10957;50.968;6.828;2022-09-02T20:12:07;20.70;1.00
21590;DHT22;10957;50.968;6.828;2022-09-02T20:17:12;20.60;1.00
21590;DHT22;10957;50.968;6.828;2022-09-02T20:22:14;20.70;1.00
21590;DHT22;10957;50.968;6.828;2022-09-02T20:33:00;20.50;1.00
21590;DHT22;10957;50.968;6.828;2022-09-02T20:38:17;20.40;1.00
21590;DHT22;10957;50.968;6.828;2022-09-02T20:43:27;20.30;1.00
21590;DHT22;10957;50.968;6.828;2022-09-02T20:54:13;19.90;1.00
21590;DHT22;10957;50.968;6.828;2022-09-02T21:05:00;19.50;1.00
21590;DHT22;10957;50.968;6.828;2022-09-02T21:10:10;19.60;1.00
21590;DHT22;10957;50.968;6.828;2022-09-02T21:26:04;19.00;1.00
21590;DHT22;10957;50.968;6.828;2022-09-02T21:31:14;18.60;1.00
21590;DHT22;10957;50.968;6.828;2022-09-02T21:36:21;18.50;1.00
21590;DHT22;10957;50.968;6.828;2022-09-02T21:41:30;18.40;1.00
21590;DHT22;10957;50.968;6.828;2022-09-02T21:57:33;17.80;1.00
21590;DHT22;10957;50.968;6.828;2022-09-02T22:03:21;17.60;1.00
21590;DHT22;10957;50.968;6.828;2022-09-02T22:08:33;17.50;1.00
21590;DHT22;10957;50.968;6.828;2022-09-02T22:13:37;17.30;1.00
21590;DHT22;10957;50.968;6.828;2022-09-02T22:23:48;17.00;1.00
21590;DHT22;10957;50.968;6.828;2022-09-02T22:28:58;17.20;1.00
21590;DHT22;10957;50.968;6.828;2022-09-02T22:34:03;17.40;1.00
21590;DHT22;10957;50.968;6.828;2022-09-02T22:39:05;17.40;1.00
21590;DHT22;10957;50.968;6.828;2022-09-02T22:44:39;17.50;1.00
21590;DHT22;10957;50.968;6.828;2022-09-02T22:50:01;17.60;1.00
21590;DHT22;10957;50.968;6.828;2022-09-02T23:00:42;17.70;1.00
21590;DHT22;10957;50.968;6.828;2022-09-02T23:06:17;17.80;1.00
21590;DHT22;10957;50.968;6.828;2022-09-02T23:11:32;17.80;1.00
21590;DHT22;10957;50.968;6.828;2022-09-02T23:17:02;17.70;1.00
21590;DHT22;10957;50.968;6.828;2022-09-02T23:28:04;17.80;1.00
21590;DHT22;10957;50.968;6.828;2022-09-02T23:43:07;17.80;1.00
21590;DHT22;10957;50.968;6.828;2022-09-02T23:48:34;17.70;1.00
